Time;durP1;ratioP1;P1;durP2;ratioP2;P2;SDS_P1;SDS_P2;PMS_P1;PMS_P2;Temp;Humidity;BMP_temperature;BMP_pressure;BME280_temperature;BME280_humidity;BME280_pressure;Samples;Min_cycle;Max_cycle;Signal;HPM_P1;HPM_P2
2023/03/16 05:00:28;;;;;;;0.82;0.82;;;-0.50;99.90;;;;;;5881183;23;20195;-69
2023/03/16 05:02:55;;;;;;;0.95;0.95;;;-0.40;99.90;;;;;;4940323;29;20205;-68
2023/03/16 05:05:22;;;;;;;0.82;0.82;;;-0.40;99.90;;;;;;4952946;28;20201;-68
2023/03/16 05:07:49;;;;;;;0.20;0.20;;;-0.40;99.90;;;;;;4941720;28;20236;-69
2023/03/16 05:10:18;;;;;;;0.10;0.10;;;-0.40;99.90;;;;;;4944349;28;20205;-68
2023/03/16 05:12:45;;;;;;;0.40;0.40;;;-0.40;99.90;;;;;;4930772;29;20206;-68
2023/03/16 05:15:12;;;;;;;1.85;1.52;;;-0.40;99.90;;;;;;4945040;23;20234;-71
2023/03/16 05:17:41;;;;;;;0.30;0.30;;;-0.40;99.90;;;;;;4906312;29;20602;-69
2023/03/16 05:20:11;;;;;;;1.27;0.90;;;-0.40;99.90;;;;;;4911820;29;20214;-71
2023/03/16 05:22:39;;;;;;;0.40;0.40;;;-0.40;99.90;;;;;;4914105;29;20213;-69
2023/03/16 05:25:07;;;;;;;1.13;1.13;;;-0.40;99.90;;;;;;4908171;29;20238;-71
2023/03/16 05:27:34;;;;;;;1.45;1.45;;;-0.40;99.90;;;;;;4911044;29;20585;-70
2023/03/16 05:30:01;;;;;;;0.35;0.35;;;-0.40;99.90;;;;;;4910176;29;20613;-70
2023/03/16 05:32:27;;;;;;;0.80;0.73;;;-0.40;99.90;;;;;;4913087;29;20809;-70
2023/03/16 05:34:55;;;;;;;1.20;1.20;;;-0.40;99.90;;;;;;4905823;29;20234;-69
2023/03/16 05:37:23;;;;;;;0.22;0.22;;;-0.50;99.90;;;;;;4907761;29;20214;-69
2023/03/16 05:39:49;;;;;;;0.32;0.32;;;-0.40;99.90;;;;;;4903970;29;20214;-70
2023/03/16 05:42:16;;;;;;;0.35;0.35;;;-0.40;99.90;;;;;;4915457;29;20214;-69
2023/03/16 05:44:43;;;;;;;0.68;0.68;;;-0.40;99.90;;;;;;4905610;29;20233;-70
2023/03/16 05:47:10;;;;;;;0.52;0.52;;;-0.40;99.90;;;;;;4909664;29;20375;-70
2023/03/16 05:49:37;;;;;;;2.05;1.90;;;-0.30;99.90;;;;;;4899690;29;20235;-70
2023/03/16 05:52:05;;;;;;;2.00;1.95;;;-0.40;99.90;;;;;;4911617;29;20258;-72
2023/03/16 05:54:32;;;;;;;4.38;1.02;;;-0.30;99.90;;;;;;4908651;29;20231;-71
2023/03/16 05:56:58;;;;;;;2.17;1.10;;;-0.30;99.90;;;;;;4911051;29;20238;-69
2023/03/16 05:59:25;;;;;;;0.95;0.95;;;-0.30;99.90;;;;;;4908142;29;20195;-71
2023/03/16 06:01:52;;;;;;;2.97;1.20;;;-0.20;99.90;;;;;;4904637;29;20220;-71
2023/03/16 06:04:19;;;;;;;0.20;0.20;;;-0.20;99.90;;;;;;4913222;29;20561;-70
2023/03/16 06:06:45;;;;;;;0.95;0.55;;;-0.10;99.90;;;;;;4913282;29;20656;-71
2023/03/16 06:09:14;;;;;;;0.70;0.70;;;-0.10;99.90;;;;;;4912741;29;20215;-70
2023/03/16 06:11:40;;;;;;;1.02;1.02;;;-0.10;99.90;;;;;;4914264;29;20214;-70
2023/03/16 06:14:07;;;;;;;4.43;1.95;;;0.00;99.90;;;;;;4914543;29;20260;-71
2023/03/16 06:16:34;;;;;;;2.88;1.80;;;0.10;99.90;;;;;;4906966;29;20218;-70
2023/03/16 06:19:00;;;;;;;0.45;0.45;;;0.20;99.90;;;;;;4913623;29;20225;-70
2023/03/16 06:21:27;;;;;;;1.27;1.27;;;0.30;99.90;;;;;;4910057;29;20211;-71
2023/03/16 06:23:54;;;;;;;1.02;1.02;;;0.30;99.90;;;;;;4905558;29;20215;-71
2023/03/16 06:26:23;;;;;;;2.53;1.73;;;0.40;99.90;;;;;;4907375;29;20219;-70
2023/03/16 06:28:50;;;;;;;1.13;1.13;;;0.50;99.90;;;;;;4900527;29;20416;-70
2023/03/16 06:31:16;;;;;;;0.45;0.45;;;0.60;99.90;;;;;;4905359;29;20202;-71
2023/03/16 06:33:43;;;;;;;1.67;1.58;;;0.60;99.90;;;;;;4911549;29;20241;-70
2023/03/16 06:36:10;;;;;;;0.60;0.60;;;0.70;99.90;;;;;;4903202;29;20237;-71
2023/03/16 06:38:37;;;;;;;0.95;0.95;;;0.80;99.90;;;;;;4907110;29;20221;-71
2023/03/16 06:41:04;;;;;;;7.88;2.22;;;0.80;99.90;;;;;;4907205;29;20566;-72
2023/03/16 06:43:32;;;;;;;2.15;2.15;;;0.90;99.90;;;;;;4905297;29;20242;-72
2023/03/16 06:46:00;;;;;;;12.60;1.63;;;1.00;99.90;;;;;;4907750;29;20229;-72
2023/03/16 06:48:27;;;;;;;1.15;0.50;;;1.00;99.90;;;;;;4904346;29;20595;-72
2023/03/16 06:50:54;;;;;;;4.57;3.83;;;1.10;99.90;;;;;;4906048;29;20218;-70
2023/03/16 06:53:21;;;;;;;0.75;0.75;;;1.10;99.90;;;;;;4910182;29;20795;-72
2023/03/16 06:55:48;;;;;;;0.80;0.80;;;1.20;99.90;;;;;;4913523;29;20226;-70
2023/03/16 06:58:15;;;;;;;10.63;3.53;;;1.20;99.90;;;;;;4912769;29;20215;-70
2023/03/16 07:00:43;;;;;;;5.70;4.50;;;1.20;99.90;;;;;;4908880;29;20532;-71
2023/03/16 07:03:09;;;;;;;2.90;2.72;;;1.30;99.90;;;;;;4908979;29;20222;-72
2023/03/16 07:05:37;;;;;;;1.55;1.45;;;1.30;99.90;;;;;;4901942;29;20230;-70
2023/03/16 07:08:04;;;;;;;9.30;7.00;;;1.30;99.90;;;;;;4911266;29;20601;-71
2023/03/16 07:10:31;;;;;;;3.35;2.92;;;1.40;99.90;;;;;;4912122;29;20308;-71
2023/03/16 07:12:58;;;;;;;2.47;1.38;;;1.40;99.90;;;;;;4910809;29;20217;-71
2023/03/16 07:15:25;;;;;;;1.60;1.23;;;1.40;99.90;;;;;;4910174;29;20238;-71
2023/03/16 07:17:53;;;;;;;3.72;1.08;;;1.50;99.90;;;;;;4903862;29;20685;-71
2023/03/16 07:20:20;;;;;;;0.95;0.95;;;1.60;99.90;;;;;;4900580;29;20302;-70
2023/03/16 07:22:47;;;;;;;0.75;0.75;;;1.60;99.90;;;;;;4907204;29;20210;-70
2023/03/16 07:25:14;;;;;;;4.68;1.10;;;1.60;99.90;;;;;;4906967;29;20235;-72
2023/03/16 07:27:42;;;;;;;1.15;0.80;;;1.60;99.90;;;;;;4902058;29;20535;-70
2023/03/16 07:30:13;;;;;;;2.33;1.05;;;1.60;99.90;;;;;;4909523;29;20500;-71
2023/03/16 07:32:40;;;;;;;2.80;2.75;;;1.70;99.90;;;;;;4909979;29;20210;-72
2023/03/16 07:35:10;;;;;;;0.28;0.28;;;1.70;99.90;;;;;;4912715;29;20703;-70
2023/03/16 07:37:37;;;;;;;0.65;0.57;;;1.70;99.90;;;;;;4905856;29;20221;-72
2023/03/16 07:40:07;;;;;;;2.53;2.28;;;1.70;99.90;;;;;;4904950;29;20199;-72
2023/03/16 07:42:34;;;;;;;1.45;1.45;;;1.80;99.90;;;;;;4906226;29;20305;-69
2023/03/16 07:45:02;;;;;;;2.10;2.00;;;1.80;99.90;;;;;;4906890;29;20330;-69
2023/03/16 07:47:29;;;;;;;1.05;1.05;;;1.90;99.90;;;;;;4904330;29;20199;-71
2023/03/16 07:49:56;;;;;;;1.00;1.00;;;1.90;99.90;;;;;;4911604;29;20786;-71
2023/03/16 07:52:24;;;;;;;1.58;1.58;;;2.00;99.90;;;;;;4899758;29;21176;-71
2023/03/16 07:54:51;;;;;;;3.70;3.38;;;2.00;99.90;;;;;;4902491;29;20238;-71
2023/03/16 07:57:18;;;;;;;1.88;1.77;;;2.10;99.90;;;;;;4914875;29;20206;-71
2023/03/16 07:59:45;;;;;;;2.38;0.85;;;2.10;99.90;;;;;;4906335;29;20222;-70
2023/03/16 08:02:13;;;;;;;6.50;0.85;;;2.20;99.90;;;;;;4914193;29;20215;-71
2023/03/16 08:04:41;;;;;;;1.17;1.10;;;2.30;99.90;;;;;;4905349;29;20238;-69
2023/03/16 08:07:08;;;;;;;0.82;0.82;;;2.30;99.90;;;;;;4903441;29;20230;-70
2023/03/16 08:09:36;;;;;;;0.38;0.38;;;2.40;99.90;;;;;;4921030;29;20298;-68
2023/03/16 08:12:03;;;;;;;1.23;1.13;;;2.50;99.90;;;;;;4922868;29;20274;-68
2023/03/16 08:14:32;;;;;;;0.57;0.57;;;2.60;99.90;;;;;;4935866;29;20270;-71
2023/03/16 08:16:59;;;;;;;0.75;0.75;;;2.70;99.90;;;;;;4929101;29;20279;-67
2023/03/16 08:19:26;;;;;;;0.30;0.30;;;2.70;99.90;;;;;;4933811;29;20195;-67
2023/03/16 08:21:53;;;;;;;0.20;0.20;;;2.80;99.90;;;;;;4918847;29;20199;-70
2023/03/16 08:24:21;;;;;;;0.75;0.75;;;2.90;99.90;;;;;;4916115;29;20654;-68
2023/03/16 08:26:49;;;;;;;2.08;1.13;;;3.00;99.90;;;;;;4901893;29;20211;-70
2023/03/16 08:29:17;;;;;;;0.45;0.45;;;3.10;99.90;;;;;;4903298;29;20254;-70
2023/03/16 08:31:44;;;;;;;0.90;0.90;;;3.20;99.90;;;;;;4910405;29;20578;-69
2023/03/16 08:34:11;;;;;;;0.38;0.38;;;3.30;99.90;;;;;;4910289;29;20238;-70
2023/03/16 08:36:38;;;;;;;0.75;0.75;;;3.40;99.90;;;;;;4908515;29;20210;-70
2023/03/16 08:39:05;;;;;;;0.52;0.52;;;3.50;99.90;;;;;;4909834;29;20232;-69
2023/03/16 08:41:33;;;;;;;1.85;1.75;;;3.50;99.90;;;;;;4913219;29;20214;-70
2023/03/16 08:44:02;;;;;;;0.73;0.73;;;3.60;99.90;;;;;;4908628;29;20234;-70
2023/03/16 08:46:29;;;;;;;3.92;1.77;;;3.70;99.90;;;;;;4909058;29;20479;-71
2023/03/16 08:48:56;;;;;;;2.65;1.83;;;3.80;99.90;;;;;;4905726;29;20493;-70
2023/03/16 08:51:23;;;;;;;0.47;0.47;;;3.90;99.90;;;;;;4903714;29;20219;-69
2023/03/16 08:53:50;;;;;;;1.92;1.52;;;4.00;99.90;;;;;;4914511;29;20214;-71
2023/03/16 08:56:17;;;;;;;0.80;0.80;;;4.10;99.90;;;;;;4905147;29;20203;-69
2023/03/16 08:58:44;;;;;;;0.20;0.20;;;4.20;99.90;;;;;;4898907;29;20211;-70
2023/03/16 09:01:14;;;;;;;1.42;1.40;;;4.30;99.90;;;;;;4909291;29;20621;-70
2023/03/16 09:03:41;;;;;;;1.30;1.30;;;4.40;99.90;;;;;;4916555;29;20521;-70
2023/03/16 09:06:09;;;;;;;0.10;0.10;;;4.50;99.90;;;;;;4913878;29;20213;-69
2023/03/16 09:08:38;;;;;;;1.75;1.33;;;4.60;99.90;;;;;;4916960;29;20209;-70
2023/03/16 09:11:07;;;;;;;1.17;0.85;;;4.70;99.90;;;;;;4910635;29;20227;-71
2023/03/16 09:13:35;;;;;;;0.75;0.75;;;4.80;99.90;;;;;;4902132;29;20226;-71
2023/03/16 09:16:02;;;;;;;1.88;1.88;;;4.90;99.90;;;;;;4909051;29;20230;-71
2023/03/16 09:18:31;;;;;;;0.55;0.55;;;5.00;99.90;;;;;;4913045;29;20211;-71
2023/03/16 09:20:58;;;;;;;1.05;0.47;;;5.20;99.90;;;;;;4917900;29;20262;-71
2023/03/16 09:23:26;;;;;;;1.75;0.80;;;5.30;99.90;;;;;;4903927;29;20203;-71
2023/03/16 09:25:53;;;;;;;0.73;0.73;;;5.50;99.90;;;;;;4897993;29;20238;-70
2023/03/16 09:28:20;;;;;;;4.68;0.50;;;5.50;99.90;;;;;;4898341;29;20215;-69
2023/03/16 09:30:47;;;;;;;1.05;0.38;;;5.70;99.90;;;;;;4897871;29;20262;-70
2023/03/16 09:33:13;;;;;;;0.68;0.68;;;5.80;99.90;;;;;;4910856;29;20677;-70
2023/03/16 09:35:42;;;;;;;0.80;0.80;;;5.90;99.90;;;;;;4915908;29;20226;-69
2023/03/16 09:38:08;;;;;;;0.30;0.30;;;6.00;99.90;;;;;;4901494;29;20207;-69
2023/03/16 09:40:37;;;;;;;6.82;1.35;;;6.20;99.90;;;;;;4907722;29;20212;-71
2023/03/16 09:43:27;;;;;;;0.73;0.73;;;6.40;99.90;;;;;;4902239;29;20203;-71
2023/03/16 09:46:01;;;;;;;2.88;0.82;;;6.50;99.90;;;;;;4910883;29;20589;-70
2023/03/16 09:48:30;;;;;;;0.20;0.20;;;6.70;99.90;;;;;;4902540;29;20217;-70
2023/03/16 09:51:02;;;;;;;2.90;0.70;;;6.80;99.90;;;;;;4898329;29;20227;-70
2023/03/16 09:53:32;;;;;;;0.50;0.50;;;6.80;99.90;;;;;;4903141;29;20245;-69
2023/03/16 09:56:02;;;;;;;3.08;1.55;;;7.00;99.90;;;;;;4911167;29;20635;-68
2023/03/16 09:58:29;;;;;;;1.35;1.35;;;7.00;99.90;;;;;;4907961;29;20217;-68
2023/03/16 10:01:08;;;;;;;1.15;1.10;;;7.00;99.90;;;;;;4907516;29;20343;-71
2023/03/16 10:04:01;;;;;;;1.85;0.52;;;7.00;99.90;;;;;;4898747;29;20223;-70
2023/03/16 10:06:30;;;;;;;1.10;1.10;;;7.20;99.90;;;;;;4908538;29;20289;-71
2023/03/16 10:09:05;;;;;;;0.38;0.38;;;7.20;99.90;;;;;;4912704;29;20297;-70
2023/03/16 10:11:37;;;;;;;0.20;0.20;;;7.20;99.90;;;;;;4909300;29;20322;-69
2023/03/16 10:14:16;;;;;;;0.45;0.40;;;7.40;99.90;;;;;;4906205;29;20234;-71
2023/03/16 10:16:47;;;;;;;1.40;1.10;;;7.50;99.90;;;;;;4903242;29;20214;-71
2023/03/16 10:19:18;;;;;;;0.20;0.20;;;7.60;99.90;;;;;;4906136;29;20693;-71
2023/03/16 10:21:48;;;;;;;2.28;0.63;;;7.70;99.90;;;;;;4912494;29;20226;-70
2023/03/16 10:24:24;;;;;;;1.20;0.93;;;7.80;99.90;;;;;;4904567;29;20242;-71
2023/03/16 10:26:58;;;;;;;0.50;0.50;;;7.90;99.90;;;;;;4909622;29;20261;-71
2023/03/16 10:29:26;;;;;;;0.50;0.50;;;8.10;99.90;;;;;;4904161;29;20752;-71
2023/03/16 10:31:58;;;;;;;0.60;0.55;;;8.20;99.90;;;;;;4902325;29;20203;-71
2023/03/16 10:34:26;;;;;;;4.70;0.50;;;8.20;99.90;;;;;;4910600;29;20536;-71
2023/03/16 10:36:55;;;;;;;1.48;1.10;;;8.10;99.40;;;;;;4907010;29;20264;-71
2023/03/16 10:39:21;;;;;;;0.52;0.52;;;8.20;99.80;;;;;;4907598;29;20770;-72
2023/03/16 10:41:55;;;;;;;1.00;1.00;;;8.40;98.40;;;;;;4905724;29;20208;-71
2023/03/16 10:44:24;;;;;;;1.25;0.63;;;8.40;97.80;;;;;;4902855;29;20235;-70
2023/03/16 10:47:00;;;;;;;1.25;1.15;;;8.40;96.90;;;;;;4897030;29;20219;-73
2023/03/16 10:49:29;;;;;;;0.73;0.40;;;8.40;96.50;;;;;;4906634;29;20248;-71
2023/03/16 10:52:00;;;;;;;3.03;0.52;;;8.40;93.50;;;;;;4908572;29;20202;-71
2023/03/16 10:54:31;;;;;;;2.20;0.50;;;8.40;94.40;;;;;;4916921;29;20227;-65
2023/03/16 10:56:57;;;;;;;1.75;1.13;;;8.50;95.20;;;;;;4904500;29;20660;-67
2023/03/16 10:59:30;;;;;;;1.17;0.60;;;8.60;95.50;;;;;;4905345;29;20221;-67
2023/03/16 11:01:58;;;;;;;2.58;2.17;;;8.50;95.10;;;;;;4910751;29;20222;-71
2023/03/16 11:04:25;;;;;;;0.30;0.30;;;8.50;95.00;;;;;;4895081;29;20574;-70
2023/03/16 11:06:54;;;;;;;1.17;0.73;;;8.50;93.60;;;;;;4896304;29;20222;-70
2023/03/16 11:09:24;;;;;;;0.10;0.10;;;8.70;92.00;;;;;;4905970;29;20293;-71
2023/03/16 11:11:52;;;;;;;0.80;0.68;;;8.70;91.50;;;;;;4897532;29;20233;-71
2023/03/16 11:14:22;;;;;;;0.20;0.20;;;8.70;90.10;;;;;;4914267;29;20233;-69
2023/03/16 11:16:57;;;;;;;1.65;0.95;;;8.70;90.10;;;;;;4932832;23;20575;-70
2023/03/16 11:19:26;;;;;;;0.30;0.30;;;8.70;90.40;;;;;;4933235;29;20619;-69
2023/03/16 11:21:58;;;;;;;0.10;0.10;;;8.90;90.10;;;;;;4932737;29;20221;-69
2023/03/16 11:24:34;;;;;;;0.40;0.40;;;9.10;88.50;;;;;;4925324;29;20209;-69
2023/03/16 11:27:04;;;;;;;0.10;0.10;;;9.10;85.20;;;;;;4933424;29;20635;-69
2023/03/16 11:29:41;;;;;;;0.38;0.35;;;9.10;86.60;;;;;;4922546;29;20202;-69
2023/03/16 11:32:13;;;;;;;0.60;0.60;;;9.20;88.60;;;;;;4918446;29;20224;-69
2023/03/16 11:34:42;;;;;;;0.20;0.20;;;9.20;85.70;;;;;;4928203;29;20218;-69
2023/03/16 11:37:16;;;;;;;1.42;1.00;;;9.20;85.50;;;;;;4919511;29;20242;-68
2023/03/16 11:39:53;;;;;;;1.83;1.73;;;9.10;85.30;;;;;;4921941;29;20244;-69
2023/03/16 11:42:28;;;;;;;0.20;0.20;;;9.10;87.50;;;;;;4914873;29;20218;-69
2023/03/16 11:45:01;;;;;;;0.30;0.30;;;9.10;83.90;;;;;;4911726;29;20213;-68
2023/03/16 11:47:51;;;;;;;0.25;0.25;;;9.20;82.80;;;;;;4906947;29;20768;-68
2023/03/16 11:50:22;;;;;;;0.20;0.20;;;9.30;83.70;;;;;;4912094;29;20234;-69
2023/03/16 11:52:59;;;;;;;0.30;0.30;;;9.40;83.70;;;;;;4918392;29;20214;-68
2023/03/16 11:55:37;;;;;;;0.32;0.32;;;9.50;85.10;;;;;;4917516;29;20305;-69
2023/03/16 11:58:21;;;;;;;0.30;0.30;;;9.60;85.00;;;;;;4917960;29;20218;-69
2023/03/16 12:00:55;;;;;;;0.30;0.30;;;9.60;83.10;;;;;;4918146;29;20301;-68
2023/03/16 12:03:36;;;;;;;1.10;0.38;;;9.50;81.30;;;;;;4911568;29;20218;-67
2023/03/16 12:06:19;;;;;;;0.30;0.30;;;9.20;80.80;;;;;;4917900;29;20233;-70
2023/03/16 12:09:18;;;;;;;0.10;0.10;;;9.20;80.60;;;;;;4929059;29;20206;-69
2023/03/16 12:11:55;;;;;;;0.68;0.30;;;9.20;80.60;;;;;;4919777;29;20229;-69
2023/03/16 12:14:26;;;;;;;0.20;0.20;;;9.20;81.10;;;;;;4936549;29;20232;-69
2023/03/16 12:16:57;;;;;;;0.88;0.22;;;9.20;82.20;;;;;;4936745;29;20241;-69
2023/03/16 12:19:34;;;;;;;0.47;0.47;;;9.30;81.30;;;;;;4932335;29;20264;-70
2023/03/16 12:22:07;;;;;;;0.43;0.43;;;9.40;83.50;;;;;;4917403;29;20233;-69
2023/03/16 12:24:41;;;;;;;0.20;0.20;;;9.50;83.70;;;;;;4917205;29;20270;-68
2023/03/16 12:27:14;;;;;;;0.73;0.40;;;9.60;81.90;;;;;;4920234;29;20280;-68
2023/03/16 12:29:50;;;;;;;0.20;0.20;;;9.90;78.00;;;;;;4929194;29;20571;-69
2023/03/16 12:32:24;;;;;;;1.48;0.60;;;9.90;76.00;;;;;;4936729;29;20647;-68
2023/03/16 12:34:57;;;;;;;2.95;0.55;;;9.80;76.00;;;;;;4932222;29;20214;-68
2023/03/16 12:37:33;;;;;;;1.95;1.02;;;9.70;75.90;;;;;;4910744;29;20316;-67
2023/03/16 12:40:07;;;;;;;0.20;0.20;;;9.60;74.20;;;;;;4927925;29;20683;-70
2023/03/16 12:42:55;;;;;;;0.55;0.55;;;9.70;74.60;;;;;;4936072;29;20268;-68
2023/03/16 12:45:33;;;;;;;0.50;0.50;;;9.80;73.20;;;;;;4935819;29;20232;-69
2023/03/16 12:48:11;;;;;;;0.10;0.10;;;9.80;72.60;;;;;;4920127;29;20250;-69
2023/03/16 12:50:49;;;;;;;0.65;0.40;;;9.80;75.40;;;;;;4917527;29;20221;-69
2023/03/16 12:53:27;;;;;;;0.43;0.43;;;10.00;73.40;;;;;;4915639;29;20647;-69
2023/03/16 12:55:56;;;;;;;0.20;0.20;;;10.00;70.00;;;;;;4929485;29;20312;-69
2023/03/16 12:58:26;;;;;;;0.10;0.10;;;10.00;71.40;;;;;;4937295;29;20214;-68
2023/03/16 13:00:58;;;;;;;7.43;0.52;;;10.00;70.00;;;;;;4937675;29;20667;-68
2023/03/16 13:03:26;;;;;;;0.20;0.20;;;10.10;68.50;;;;;;4927978;29;20210;-69
2023/03/16 13:05:56;;;;;;;0.63;0.20;;;10.00;71.20;;;;;;4930168;29;20249;-68
2023/03/16 13:08:23;;;;;;;0.20;0.20;;;9.90;71.70;;;;;;4935161;29;20213;-69
2023/03/16 13:11:02;;;;;;;1.67;1.48;;;9.90;72.20;;;;;;4920790;29;20241;-68
2023/03/16 13:13:30;;;;;;;0.10;0.10;;;9.90;74.50;;;;;;4928711;29;20212;-68
2023/03/16 13:16:08;;;;;;;0.45;0.45;;;9.90;74.40;;;;;;4935685;29;20273;-68
2023/03/16 13:18:38;;;;;;;5.65;0.47;;;9.90;74.10;;;;;;4926880;29;20202;-68
2023/03/16 13:21:17;;;;;;;0.20;0.20;;;9.90;73.30;;;;;;4939888;29;20206;-68
2023/03/16 13:23:54;;;;;;;0.20;0.20;;;10.00;72.90;;;;;;4935714;29;20214;-69
2023/03/16 13:26:29;;;;;;;0.20;0.20;;;10.00;71.20;;;;;;4922717;29;20345;-69
2023/03/16 13:28:57;;;;;;;0.75;0.43;;;10.00;71.20;;;;;;4910187;29;20225;-69
2023/03/16 13:31:26;;;;;;;0.90;0.50;;;10.00;69.50;;;;;;4924300;29;20249;-69
2023/03/16 13:33:55;;;;;;;0.20;0.20;;;9.90;71.30;;;;;;4935520;29;20233;-69
2023/03/16 13:36:23;;;;;;;0.10;0.10;;;9.90;73.30;;;;;;4936372;29;20273;-69
2023/03/16 13:38:57;;;;;;;1.13;0.75;;;10.00;69.40;;;;;;4936520;29;20210;-69
2023/03/16 13:41:24;;;;;;;0.20;0.20;;;10.00;68.60;;;;;;4922402;29;20209;-68
2023/03/16 13:43:50;;;;;;;0.20;0.20;;;9.90;69.10;;;;;;4916625;29;20265;-69
2023/03/16 13:46:21;;;;;;;0.65;0.65;;;10.00;67.10;;;;;;4930542;29;20222;-69
2023/03/16 13:48:49;;;;;;;0.30;0.30;;;9.90;69.30;;;;;;4935445;29;20553;-69
2023/03/16 13:51:19;;;;;;;0.10;0.10;;;9.90;67.30;;;;;;4935501;29;20644;-69
2023/03/16 13:53:47;;;;;;;0.20;0.20;;;9.80;66.70;;;;;;4935147;29;20625;-69
2023/03/16 13:56:15;;;;;;;0.10;0.10;;;9.80;68.60;;;;;;4923712;29;20919;-69
2023/03/16 13:58:46;;;;;;;0.10;0.10;;;9.70;68.00;;;;;;4926189;29;20215;-69
2023/03/16 14:01:23;;;;;;;0.20;0.20;;;9.70;68.80;;;;;;4928017;29;20206;-68
2023/03/16 14:03:52;;;;;;;0.75;0.75;;;9.60;69.00;;;;;;4935117;29;20210;-69
2023/03/16 14:06:24;;;;;;;0.20;0.20;;;9.60;69.50;;;;;;4935682;29;20284;-69
2023/03/16 14:08:53;;;;;;;0.30;0.30;;;9.50;69.60;;;;;;4930788;29;20262;-68
2023/03/16 14:11:20;;;;;;;0.20;0.20;;;9.50;70.80;;;;;;4928187;29;20268;-69
2023/03/16 14:13:52;;;;;;;0.10;0.10;;;9.50;71.60;;;;;;4934065;29;20213;-69
2023/03/16 14:16:23;;;;;;;1.40;0.30;;;9.50;72.60;;;;;;4925815;29;20325;-68
2023/03/16 14:18:57;;;;;;;0.25;0.25;;;9.50;72.20;;;;;;4932665;29;20233;-68
2023/03/16 14:21:26;;;;;;;0.25;0.25;;;9.50;72.80;;;;;;4929843;29;20217;-69
2023/03/16 14:23:56;;;;;;;0.20;0.20;;;9.50;74.30;;;;;;4924517;29;20218;-68
2023/03/16 14:26:23;;;;;;;0.10;0.10;;;9.40;74.10;;;;;;4934173;29;20230;-68
2023/03/16 14:28:56;;;;;;;0.30;0.30;;;9.40;73.30;;;;;;4934754;29;20297;-68
2023/03/16 14:31:33;;;;;;;0.45;0.45;;;9.40;76.00;;;;;;4923669;29;20223;-68
2023/03/16 14:34:01;;;;;;;0.35;0.35;;;9.40;77.30;;;;;;4924219;29;20270;-68
2023/03/16 14:36:35;;;;;;;0.40;0.40;;;9.40;77.10;;;;;;4924196;29;20314;-68
2023/03/16 14:39:11;;;;;;;0.20;0.20;;;9.40;78.10;;;;;;4934246;29;20209;-68
2023/03/16 14:41:38;;;;;;;0.20;0.20;;;9.40;76.90;;;;;;4934003;29;20206;-68
2023/03/16 14:44:13;;;;;;;0.40;0.40;;;9.40;77.30;;;;;;4925083;29;20210;-68
2023/03/16 14:46:42;;;;;;;0.20;0.20;;;9.40;79.00;;;;;;4920737;29;20282;-68
2023/03/16 14:49:20;;;;;;;0.20;0.20;;;9.40;78.70;;;;;;4916616;29;20206;-68
2023/03/16 14:51:49;;;;;;;0.20;0.20;;;9.40;78.80;;;;;;4926831;29;20641;-69
2023/03/16 14:54:20;;;;;;;0.40;0.40;;;9.40;78.20;;;;;;4934096;29;20693;-69
2023/03/16 14:56:48;;;;;;;0.20;0.20;;;9.40;78.70;;;;;;4933905;29;20234;-69
2023/03/16 14:59:15;;;;;;;0.20;0.20;;;9.50;79.50;;;;;;4920696;29;20625;-69
2023/03/16 15:01:44;;;;;;;0.20;0.20;;;9.50;79.90;;;;;;4931557;29;20241;-69
2023/03/16 15:04:14;;;;;;;0.30;0.30;;;9.60;77.20;;;;;;4925990;29;20280;-69
2023/03/16 15:06:41;;;;;;;0.10;0.10;;;9.60;76.00;;;;;;4926526;29;20222;-69
2023/03/16 15:09:24;;;;;;;0.68;0.20;;;9.60;77.10;;;;;;4919239;29;20232;-69
2023/03/16 15:11:54;;;;;;;0.30;0.30;;;9.60;77.80;;;;;;4924952;29;20622;-69
2023/03/16 15:15:14;;;;;;;5.72;0.98;;;9.60;77.80;;;;;;4935103;29;20256;-67
2023/03/16 15:17:14;;;;;;;0.32;0.32;;;9.60;79.70;;;;;;4911607;29;20326;-68
2023/03/16 15:19:40;;;;;;;0.40;0.32;;;9.60;78.10;;;;;;4909924;29;20238;-67
2023/03/16 15:22:10;;;;;;;0.30;0.30;;;9.50;76.60;;;;;;4919424;29;20672;-66
2023/03/16 15:24:37;;;;;;;3.53;1.20;;;9.50;78.10;;;;;;4910787;29;20673;-67
2023/03/16 15:27:04;;;;;;;0.20;0.20;;;9.50;79.80;;;;;;4925211;29;20217;-70
2023/03/16 15:29:30;;;;;;;0.40;0.40;;;9.50;76.80;;;;;;4933713;29;20217;-67
2023/03/16 15:31:57;;;;;;;0.20;0.20;;;9.40;77.10;;;;;;4926528;29;20263;-68
2023/03/16 15:34:26;;;;;;;0.47;0.47;;;9.40;77.20;;;;;;4924580;29;20209;-67
2023/03/16 15:36:52;;;;;;;1.60;1.50;;;9.30;77.20;;;;;;4933710;29;20375;-67
2023/03/16 15:39:23;;;;;;;0.20;0.20;;;9.30;76.10;;;;;;4924889;29;20206;-67
2023/03/16 15:41:50;;;;;;;0.10;0.10;;;9.20;76.20;;;;;;4925424;29;20205;-67
2023/03/16 15:44:17;;;;;;;0.25;0.25;;;9.20;77.90;;;;;;4933087;29;20225;-67
2023/03/16 15:46:44;;;;;;;0.20;0.20;;;9.20;76.20;;;;;;4922567;29;20231;-68
2023/03/16 15:49:11;;;;;;;0.20;0.20;;;9.10;76.70;;;;;;4925344;29;20256;-67
2023/03/16 15:51:39;;;;;;;0.65;0.50;;;9.10;76.10;;;;;;4933740;29;20227;-67
2023/03/16 15:54:08;;;;;;;0.30;0.20;;;9.10;76.70;;;;;;4933044;29;20213;-67
2023/03/16 15:56:40;;;;;;;0.20;0.20;;;9.00;75.60;;;;;;4920903;29;20226;-67
2023/03/16 15:59:12;;;;;;;0.10;0.10;;;9.00;76.90;;;;;;4895934;29;20271;-67
2023/03/16 16:01:44;;;;;;;0.10;0.10;;;9.00;77.90;;;;;;4898086;29;20203;-68
2023/03/16 16:04:14;;;;;;;0.40;0.40;;;9.00;77.50;;;;;;4913275;29;20215;-68
2023/03/16 16:06:42;;;;;;;0.60;0.50;;;9.00;78.60;;;;;;4930929;29;20297;-68
2023/03/16 16:09:09;;;;;;;0.20;0.20;;;8.90;78.40;;;;;;4921895;29;20203;-66
2023/03/16 16:11:36;;;;;;;1.38;0.30;;;8.90;79.80;;;;;;4907415;29;20215;-66
2023/03/16 16:14:04;;;;;;;2.05;1.00;;;8.90;80.60;;;;;;4911719;29;20213;-66
2023/03/16 16:16:32;;;;;;;5.65;0.73;;;8.90;80.10;;;;;;4915390;29;20241;-62
2023/03/16 16:18:59;;;;;;;0.88;0.32;;;8.90;81.80;;;;;;4919421;29;20289;-62
2023/03/16 16:21:27;;;;;;;0.55;0.55;;;8.80;79.50;;;;;;4906013;29;20230;-63
2023/03/16 16:23:56;;;;;;;0.68;0.25;;;8.80;80.60;;;;;;4920438;29;20294;-68
2023/03/16 16:26:26;;;;;;;0.20;0.20;;;8.80;79.80;;;;;;4917645;29;20229;-68
2023/03/16 16:28:53;;;;;;;0.20;0.20;;;8.80;80.30;;;;;;4925884;29;20210;-68
2023/03/16 16:31:22;;;;;;;1.40;0.30;;;8.70;80.70;;;;;;4912673;29;20312;-67
2023/03/16 16:33:49;;;;;;;0.30;0.30;;;8.70;81.50;;;;;;4922005;29;20270;-67
2023/03/16 16:36:19;;;;;;;0.30;0.20;;;8.70;81.70;;;;;;4924339;29;20246;-67
2023/03/16 16:38:46;;;;;;;0.30;0.30;;;8.70;82.20;;;;;;4918147;29;20247;-67
2023/03/16 16:41:23;;;;;;;0.35;0.35;;;8.60;81.70;;;;;;4922602;29;20206;-70
2023/03/16 16:43:52;;;;;;;0.15;0.15;;;8.60;82.40;;;;;;4914534;29;20211;-68
2023/03/16 16:46:22;;;;;;;0.20;0.20;;;8.60;83.10;;;;;;4904193;29;20227;-68
2023/03/16 16:48:50;;;;;;;0.52;0.30;;;8.60;83.20;;;;;;4922322;29;20546;-68
2023/03/16 16:51:20;;;;;;;0.30;0.30;;;8.50;85.10;;;;;;4909557;29;20705;-68
2023/03/16 16:53:47;;;;;;;2.35;0.85;;;8.50;85.20;;;;;;4915409;29;20278;-68
2023/03/16 16:56:17;;;;;;;0.47;0.40;;;8.50;86.20;;;;;;4916757;29;20252;-68
2023/03/16 16:58:45;;;;;;;0.50;0.30;;;8.50;86.00;;;;;;4912662;29;20219;-68
2023/03/16 17:01:15;;;;;;;0.35;0.35;;;8.40;86.10;;;;;;4924974;29;20314;-68
2023/03/16 17:03:42;;;;;;;0.20;0.20;;;8.40;87.90;;;;;;4900450;29;20238;-68
2023/03/16 17:06:15;;;;;;;0.20;0.20;;;8.40;87.70;;;;;;4909897;29;20230;-67
2023/03/16 17:08:42;;;;;;;0.10;0.10;;;8.40;88.50;;;;;;4906329;29;20223;-68
2023/03/16 17:11:15;;;;;;;0.20;0.20;;;8.30;89.70;;;;;;4910121;29;20215;-67
2023/03/16 17:13:45;;;;;;;0.20;0.20;;;8.30;90.20;;;;;;4905001;29;20234;-67
2023/03/16 17:16:15;;;;;;;0.20;0.20;;;8.30;90.40;;;;;;4917093;29;20831;-69
2023/03/16 17:18:42;;;;;;;0.10;0.10;;;8.20;90.80;;;;;;4914117;29;20587;-69
2023/03/16 17:21:12;;;;;;;0.30;0.30;;;8.20;91.00;;;;;;4947090;23;20237;-69
2023/03/16 17:23:39;;;;;;;0.45;0.45;;;8.20;91.30;;;;;;4928688;29;20217;-68
2023/03/16 17:26:13;;;;;;;0.28;0.28;;;8.10;91.70;;;;;;4934354;29;20206;-67
2023/03/16 17:28:45;;;;;;;0.28;0.28;;;8.20;92.10;;;;;;4934527;29;20206;-67
2023/03/16 17:31:13;;;;;;;0.43;0.43;;;8.10;92.70;;;;;;4917395;29;20317;-68
2023/03/16 17:33:40;;;;;;;0.50;0.50;;;8.10;93.00;;;;;;4910688;29;20235;-68
2023/03/16 17:36:07;;;;;;;0.35;0.35;;;8.00;93.50;;;;;;4905846;29;20298;-68
2023/03/16 17:38:34;;;;;;;1.65;1.55;;;8.00;93.60;;;;;;4915409;29;20723;-67
2023/03/16 17:41:01;;;;;;;0.73;0.45;;;8.00;94.00;;;;;;4915232;29;20237;-67
2023/03/16 17:43:30;;;;;;;0.40;0.40;;;8.00;94.20;;;;;;4915661;29;20230;-67
2023/03/16 17:46:00;;;;;;;0.80;0.80;;;8.00;94.50;;;;;;4911328;29;20238;-68
2023/03/16 17:48:28;;;;;;;1.65;0.73;;;8.00;95.20;;;;;;4908116;29;20210;-68
2023/03/16 17:50:55;;;;;;;0.35;0.35;;;7.90;95.10;;;;;;4907989;29;20274;-68
2023/03/16 17:53:22;;;;;;;0.40;0.40;;;7.90;95.60;;;;;;4911607;29;20579;-67
2023/03/16 17:55:49;;;;;;;0.25;0.25;;;7.90;96.00;;;;;;4913741;29;20207;-68
2023/03/16 17:58:24;;;;;;;0.20;0.20;;;7.90;96.00;;;;;;4913809;29;20206;-67
2023/03/16 18:00:52;;;;;;;0.22;0.22;;;7.90;96.00;;;;;;4915292;29;20246;-68
2023/03/16 18:03:21;;;;;;;2.15;0.93;;;7.80;96.10;;;;;;4907368;29;20297;-68
2023/03/16 18:05:48;;;;;;;1.50;1.27;;;7.90;96.10;;;;;;4911594;29;20528;-68
2023/03/16 18:08:17;;;;;;;0.30;0.30;;;7.80;96.50;;;;;;4912504;29;20292;-68